createdAt,value
2016-07-03T00:00:26.200Z,0
2016-07-03T00:01:26.232Z,0
2016-07-03T00:02:26.253Z,0
2016-07-03T00:03:26.253Z,0
2016-07-03T00:04:26.279Z,0
2016-07-03T00:05:26.376Z,0
2016-07-03T00:06:26.346Z,0
2016-07-03T00:07:26.370Z,0
2016-07-03T00:08:26.393Z,0
2016-07-03T00:09:26.432Z,0
2016-07-03T00:10:26.414Z,0
2016-07-03T00:11:26.421Z,0
2016-07-03T00:12:26.426Z,0
2016-07-03T00:13:26.436Z,0
2016-07-03T00:14:26.457Z,0
2016-07-03T00:15:26.476Z,0
2016-07-03T00:16:26.487Z,0
2016-07-03T00:17:26.512Z,0
2016-07-03T00:18:26.530Z,0
2016-07-03T00:19:26.553Z,0
2016-07-03T00:20:26.569Z,0
2016-07-03T00:21:26.582Z,0
2016-07-03T00:22:26.606Z,0
2016-07-03T00:23:26.615Z,0
2016-07-03T00:24:26.640Z,0
2016-07-03T00:25:26.643Z,0
2016-07-03T00:26:26.656Z,0
2016-07-03T00:27:26.682Z,0
2016-07-03T00:28:26.692Z,0
2016-07-03T00:29:26.722Z,0
2016-07-03T00:30:26.735Z,0
2016-07-03T00:31:26.782Z,0
2016-07-03T00:32:26.779Z,0
2016-07-03T00:33:26.794Z,0
2016-07-03T00:34:26.827Z,0
2016-07-03T00:35:26.841Z,0
2016-07-03T00:36:26.854Z,0
2016-07-03T00:37:26.868Z,0
2016-07-03T00:38:26.901Z,0
2016-07-03T00:39:26.910Z,0
2016-07-03T00:40:26.925Z,0
2016-07-03T00:41:26.960Z,0
2016-07-03T00:42:26.961Z,0
2016-07-03T00:43:27.001Z,0
2016-07-03T00:44:26.994Z,0
2016-07-03T00:45:27.025Z,0
2016-07-03T00:46:27.032Z,0
2016-07-03T00:47:27.057Z,0
2016-07-03T00:48:27.056Z,0
2016-07-03T00:49:27.102Z,0
2016-07-03T00:50:27.102Z,0
2016-07-03T00:51:27.136Z,0
2016-07-03T00:52:27.139Z,0
2016-07-03T00:53:27.159Z,0
2016-07-03T00:54:27.177Z,0
2016-07-03T00:55:27.209Z,0
2016-07-03T00:56:27.222Z,0
2016-07-03T00:57:27.234Z,0
2016-07-03T00:58:27.262Z,0
2016-07-03T00:59:27.288Z,0
2016-07-03T01:00:27.285Z,0
2016-07-03T01:01:27.311Z,0
2016-07-03T01:02:27.311Z,0
2016-07-03T01:03:27.348Z,0
2016-07-03T01:04:27.357Z,0
2016-07-03T01:05:27.416Z,0
2016-07-03T01:06:27.436Z,0
2016-07-03T01:07:27.464Z,0
2016-07-03T01:08:27.484Z,0
2016-07-03T01:09:27.496Z,0
2016-07-03T01:10:27.498Z,0
2016-07-03T01:11:27.483Z,0
2016-07-03T01:12:27.481Z,0
2016-07-03T01:13:27.489Z,0
2016-07-03T01:14:27.521Z,0
2016-07-03T01:15:27.538Z,0
2016-07-03T01:16:27.569Z,0
2016-07-03T01:17:27.583Z,0
2016-07-03T01:18:27.597Z,0
2016-07-03T01:19:27.628Z,0
2016-07-03T01:20:27.642Z,0
2016-07-03T01:21:27.679Z,0
2016-07-03T01:22:27.686Z,0
2016-07-03T01:23:27.702Z,0
2016-07-03T01:24:27.724Z,0
2016-07-03T01:25:27.724Z,0
2016-07-03T01:26:27.756Z,0
2016-07-03T01:27:27.760Z,0
2016-07-03T01:28:27.786Z,0
2016-07-03T01:29:27.793Z,0
2016-07-03T01:30:27.826Z,0
2016-07-03T01:31:27.850Z,0
2016-07-03T01:32:27.858Z,0
2016-07-03T01:33:27.888Z,0
2016-07-03T01:34:27.893Z,0
2016-07-03T01:35:27.915Z,0
2016-07-03T01:36:27.922Z,0
2016-07-03T01:37:27.942Z,0
2016-07-03T01:38:27.968Z,0
2016-07-03T01:39:27.976Z,0
2016-07-03T01:40:27.999Z,0
2016-07-03T01:41:28.024Z,0
2016-07-03T01:42:28.040Z,0
2016-07-03T01:43:28.059Z,0
2016-07-03T01:44:28.092Z,0
2016-07-03T01:45:28.093Z,0
2016-07-03T01:46:28.112Z,0
2016-07-03T01:47:28.136Z,0
2016-07-03T01:48:28.141Z,0
2016-07-03T01:49:28.154Z,0
2016-07-03T01:50:28.185Z,0
2016-07-03T01:51:28.202Z,0
2016-07-03T01:52:28.220Z,0
2016-07-03T01:53:28.238Z,0
2016-07-03T01:54:28.238Z,0
2016-07-03T01:55:28.259Z,0
2016-07-03T01:56:28.272Z,0
2016-07-03T01:57:28.302Z,0
2016-07-03T01:58:28.322Z,0
2016-07-03T01:59:28.328Z,0
2016-07-03T02:00:28.373Z,0
2016-07-03T02:01:28.384Z,0
2016-07-03T02:02:28.404Z,0
2016-07-03T02:03:28.415Z,0
2016-07-03T02:04:28.454Z,0
2016-07-03T02:05:28.445Z,0
2016-07-03T02:06:28.480Z,0
2016-07-03T02:07:28.488Z,0
2016-07-03T02:08:28.527Z,0
2016-07-03T02:09:28.524Z,0
2016-07-03T02:10:28.541Z,0
2016-07-03T02:11:28.549Z,0
2016-07-03T02:12:28.587Z,0
2016-07-03T02:13:28.592Z,0
2016-07-03T02:14:28.617Z,0
2016-07-03T02:15:28.619Z,0
2016-07-03T02:16:28.642Z,0
2016-07-03T02:17:28.644Z,0
2016-07-03T02:18:28.689Z,0
2016-07-03T02:19:28.697Z,0
2016-07-03T02:20:28.711Z,0
2016-07-03T02:21:28.723Z,0
2016-07-03T02:22:28.785Z,0
2016-07-03T02:23:28.787Z,0
2016-07-03T02:24:28.787Z,0
2016-07-03T02:25:28.810Z,0
2016-07-03T02:26:28.820Z,0
2016-07-03T02:27:28.883Z,0
2016-07-03T02:28:28.897Z,0
2016-07-03T02:29:28.878Z,0
2016-07-03T02:30:28.928Z,0
2016-07-03T02:31:28.962Z,0
2016-07-03T02:32:28.966Z,0
2016-07-03T02:33:28.992Z,0
2016-07-03T02:34:28.991Z,0
2016-07-03T02:35:28.979Z,0
2016-07-03T02:36:28.989Z,0
2016-07-03T02:37:29.001Z,0
2016-07-03T02:38:29.030Z,0
2016-07-03T02:39:29.032Z,0
2016-07-03T02:40:29.060Z,0
2016-07-03T02:41:29.082Z,0
2016-07-03T02:42:29.105Z,0
2016-07-03T02:43:29.113Z,0
2016-07-03T02:44:29.124Z,0
2016-07-03T02:45:29.166Z,0
2016-07-03T02:46:29.170Z,0
2016-07-03T02:47:29.190Z,0
2016-07-03T02:48:29.207Z,0
2016-07-03T02:49:29.224Z,0
2016-07-03T02:50:29.245Z,0
2016-07-03T02:51:29.255Z,0
2016-07-03T02:52:29.278Z,0
2016-07-03T02:53:29.296Z,0
2016-07-03T02:54:29.305Z,0
2016-07-03T02:55:29.327Z,0
2016-07-03T02:56:29.348Z,0
2016-07-03T02:57:29.360Z,0
2016-07-03T02:58:29.364Z,0
2016-07-03T02:59:29.445Z,0
2016-07-03T03:00:29.442Z,0
2016-07-03T03:01:29.447Z,0
2016-07-03T03:02:29.445Z,0
2016-07-03T03:03:29.461Z,0
2016-07-03T03:04:29.474Z,0
2016-07-03T03:05:29.485Z,0
2016-07-03T03:06:29.498Z,0
2016-07-03T03:07:29.518Z,0
2016-07-03T03:08:29.538Z,0
2016-07-03T03:09:29.571Z,0
2016-07-03T03:10:29.568Z,0
2016-07-03T03:11:29.592Z,0
2016-07-03T03:12:29.601Z,0
2016-07-03T03:13:29.634Z,0
2016-07-03T03:14:29.639Z,0
2016-07-03T03:15:29.669Z,5
2016-07-03T03:16:29.675Z,5
2016-07-03T03:17:29.698Z,5
2016-07-03T03:18:29.708Z,5
2016-07-03T03:19:29.740Z,5
2016-07-03T03:20:29.760Z,10
2016-07-03T03:21:29.772Z,10
2016-07-03T03:22:29.793Z,10
2016-07-03T03:23:29.794Z,10
2016-07-03T03:24:29.835Z,10
2016-07-03T03:25:29.844Z,10
2016-07-03T03:26:29.856Z,15
2016-07-03T03:27:29.863Z,15
2016-07-03T03:28:29.896Z,15
2016-07-03T03:29:29.908Z,15
2016-07-03T03:30:29.926Z,15
2016-07-03T03:31:29.942Z,15
2016-07-03T03:32:30.578Z,20
2016-07-03T03:33:29.973Z,20
2016-07-03T03:34:30.002Z,20
2016-07-03T03:35:30.017Z,20
2016-07-03T03:36:30.019Z,20
2016-07-03T03:37:30.051Z,25
2016-07-03T03:38:30.045Z,25
2016-07-03T03:39:30.068Z,25
2016-07-03T03:40:30.094Z,25
2016-07-03T03:41:30.094Z,25
2016-07-03T03:42:30.117Z,30
2016-07-03T03:43:30.144Z,30
2016-07-03T03:44:30.153Z,30
2016-07-03T03:45:30.186Z,35
2016-07-03T03:46:30.190Z,35
2016-07-03T03:47:30.230Z,40
2016-07-03T03:48:30.233Z,40
2016-07-03T03:49:30.251Z,40
2016-07-03T03:50:30.261Z,40
2016-07-03T03:51:30.294Z,40
2016-07-03T03:52:30.309Z,40
2016-07-03T03:53:30.328Z,40
2016-07-03T03:54:30.343Z,40
2016-07-03T03:55:30.367Z,40
2016-07-03T03:56:30.364Z,50
2016-07-03T03:57:30.393Z,55
2016-07-03T03:58:30.408Z,60
2016-07-03T03:59:30.435Z,60
2016-07-03T04:00:30.431Z,60
2016-07-03T04:01:30.481Z,60
2016-07-03T04:02:30.476Z,60
2016-07-03T04:03:30.504Z,60
2016-07-03T04:04:30.541Z,65
2016-07-03T04:05:30.544Z,65
2016-07-03T04:06:30.545Z,60
2016-07-03T04:07:30.591Z,60
2016-07-03T04:08:30.578Z,55
2016-07-03T04:09:30.594Z,55
2016-07-03T04:10:30.602Z,60
2016-07-03T04:11:30.631Z,60
2016-07-03T04:12:30.648Z,55
2016-07-03T04:13:30.680Z,55
2016-07-03T04:14:30.690Z,65
2016-07-03T04:15:30.734Z,70
2016-07-03T04:16:30.719Z,75
2016-07-03T04:17:30.721Z,65
2016-07-03T04:18:30.760Z,65
2016-07-03T04:19:30.794Z,75
2016-07-03T04:20:30.790Z,90
2016-07-03T04:21:30.808Z,85
2016-07-03T04:22:30.823Z,95
2016-07-03T04:23:30.847Z,105
2016-07-03T04:24:30.859Z,105
2016-07-03T04:25:30.871Z,110
2016-07-03T04:26:30.901Z,105
2016-07-03T04:27:30.917Z,115
2016-07-03T04:28:30.935Z,115
2016-07-03T04:29:30.972Z,115
2016-07-03T04:30:30.981Z,100
2016-07-03T04:31:30.989Z,100
2016-07-03T04:32:31.012Z,105
2016-07-03T04:33:31.041Z,125
2016-07-03T04:34:31.054Z,120
2016-07-03T04:35:31.065Z,115
2016-07-03T04:36:31.084Z,120
2016-07-03T04:37:31.103Z,105
2016-07-03T04:38:31.125Z,115
2016-07-03T04:39:31.149Z,115
2016-07-03T04:40:31.155Z,120
2016-07-03T04:41:31.189Z,130
2016-07-03T04:42:31.194Z,120
2016-07-03T04:43:31.230Z,120
2016-07-03T04:44:31.227Z,120
2016-07-03T04:45:31.254Z,120
2016-07-03T04:46:31.265Z,120
2016-07-03T04:47:31.294Z,115
2016-07-03T04:48:31.301Z,115
2016-07-03T04:49:31.340Z,125
2016-07-03T04:50:31.344Z,130
2016-07-03T04:51:31.362Z,120
2016-07-03T04:52:31.384Z,105
2016-07-03T04:53:31.408Z,90
2016-07-03T04:54:31.413Z,90
2016-07-03T04:55:31.450Z,85
2016-07-03T04:56:31.458Z,85
2016-07-03T04:57:31.492Z,85
2016-07-03T04:58:31.481Z,85
2016-07-03T04:59:31.510Z,90
2016-07-03T05:00:31.516Z,85
2016-07-03T05:01:31.553Z,90
2016-07-03T05:02:31.553Z,90
2016-07-03T05:03:31.579Z,90
2016-07-03T05:04:31.598Z,90
2016-07-03T05:05:31.612Z,90
2016-07-03T05:06:31.639Z,90
2016-07-03T05:07:31.645Z,90
2016-07-03T05:08:31.663Z,100
2016-07-03T05:09:31.688Z,90
2016-07-03T05:10:31.694Z,90
2016-07-03T05:11:31.717Z,90
2016-07-03T05:12:31.733Z,90
2016-07-03T05:13:31.764Z,90
2016-07-03T05:14:31.760Z,90
2016-07-03T05:15:31.776Z,95
2016-07-03T05:16:31.798Z,95
2016-07-03T05:17:31.827Z,95
2016-07-03T05:18:31.847Z,100
2016-07-03T05:19:31.854Z,105
2016-07-03T05:20:31.884Z,100
2016-07-03T05:21:31.900Z,105
2016-07-03T05:22:31.905Z,100
2016-07-03T05:23:31.946Z,95
2016-07-03T05:24:31.955Z,100
2016-07-03T05:25:31.975Z,100
2016-07-03T05:26:31.996Z,100
2016-07-03T05:27:32.017Z,95
2016-07-03T05:28:32.022Z,95
2016-07-03T05:29:32.044Z,100
2016-07-03T05:30:32.062Z,100
2016-07-03T05:31:32.077Z,100
2016-07-03T05:32:32.107Z,105
2016-07-03T05:33:32.115Z,105
2016-07-03T05:34:32.141Z,105
2016-07-03T05:35:32.153Z,110
2016-07-03T05:36:32.169Z,110
2016-07-03T05:37:32.196Z,110
2016-07-03T05:38:32.208Z,115
2016-07-03T05:39:32.230Z,110
2016-07-03T05:40:32.254Z,115
2016-07-03T05:41:32.265Z,120
2016-07-03T05:42:32.279Z,130
2016-07-03T05:43:32.307Z,145
2016-07-03T05:44:32.334Z,185
2016-07-03T05:45:32.335Z,190
2016-07-03T05:46:32.351Z,190
2016-07-03T05:47:32.373Z,195
2016-07-03T05:48:32.412Z,180
2016-07-03T05:49:32.405Z,170
2016-07-03T05:50:32.423Z,155
2016-07-03T05:51:32.452Z,175
2016-07-03T05:52:32.473Z,195
2016-07-03T05:53:33.107Z,195
2016-07-03T05:54:32.499Z,190
2016-07-03T05:55:32.524Z,185
2016-07-03T05:56:32.536Z,195
2016-07-03T05:57:32.561Z,195
2016-07-03T05:58:32.578Z,200
2016-07-03T05:59:32.605Z,215
2016-07-03T06:00:32.619Z,155
2016-07-03T06:01:32.621Z,185
2016-07-03T06:02:32.657Z,160
2016-07-03T06:03:32.674Z,160
2016-07-03T06:04:32.694Z,140
2016-07-03T06:05:32.702Z,135
2016-07-03T06:06:32.726Z,185
2016-07-03T06:07:32.745Z,200
2016-07-03T06:08:32.773Z,200
2016-07-03T06:09:32.788Z,200
2016-07-03T06:10:32.806Z,210
2016-07-03T06:11:32.821Z,180
2016-07-03T06:12:32.839Z,200
2016-07-03T06:13:32.866Z,225
2016-07-03T06:14:32.878Z,165
2016-07-03T06:15:32.897Z,225
2016-07-03T06:16:32.913Z,155
2016-07-03T06:17:32.946Z,160
2016-07-03T06:18:32.959Z,180
2016-07-03T06:19:32.972Z,170
2016-07-03T06:20:32.993Z,165
2016-07-03T06:21:33.023Z,225
2016-07-03T06:22:33.029Z,235
2016-07-03T06:23:33.075Z,200
2016-07-03T06:24:33.071Z,160
2016-07-03T06:25:33.096Z,200
2016-07-03T06:26:33.113Z,225
2016-07-03T06:27:33.129Z,165
2016-07-03T06:28:33.162Z,160
2016-07-03T06:29:33.175Z,170
2016-07-03T06:30:33.198Z,175
2016-07-03T06:31:33.217Z,175
2016-07-03T06:32:33.241Z,240
2016-07-03T06:33:33.255Z,180
2016-07-03T06:34:33.272Z,180
2016-07-03T06:35:33.277Z,250
2016-07-03T06:36:33.305Z,235
2016-07-03T06:37:33.332Z,190
2016-07-03T06:38:33.354Z,195
2016-07-03T06:39:33.372Z,195
2016-07-03T06:40:33.379Z,195
2016-07-03T06:41:33.407Z,245
2016-07-03T06:42:33.434Z,190
2016-07-03T06:43:33.448Z,195
2016-07-03T06:44:33.457Z,190
2016-07-03T06:45:33.487Z,185
2016-07-03T06:46:33.501Z,185
2016-07-03T06:47:33.527Z,185
2016-07-03T06:48:33.535Z,200
2016-07-03T06:49:33.566Z,195
2016-07-03T06:50:33.579Z,205
2016-07-03T06:51:33.584Z,210
2016-07-03T06:52:33.627Z,200
2016-07-03T06:53:33.642Z,190
2016-07-03T06:54:33.657Z,185
2016-07-03T06:55:33.686Z,175
2016-07-03T06:56:33.695Z,170
2016-07-03T06:57:33.730Z,170
2016-07-03T06:58:33.744Z,165
2016-07-03T06:59:33.764Z,160
2016-07-03T07:00:33.783Z,165
2016-07-03T07:01:33.806Z,170
2016-07-03T07:02:33.812Z,165
2016-07-03T07:03:33.853Z,155
2016-07-03T07:04:33.867Z,150
2016-07-03T07:05:33.878Z,150
2016-07-03T07:06:33.894Z,155
2016-07-03T07:07:33.927Z,160
2016-07-03T07:08:33.938Z,160
2016-07-03T07:09:33.966Z,160
2016-07-03T07:10:33.968Z,160
2016-07-03T07:11:33.995Z,150
2016-07-03T07:12:34.003Z,145
2016-07-03T07:13:34.035Z,135
2016-07-03T07:14:34.043Z,130
2016-07-03T07:15:34.080Z,120
2016-07-03T07:16:34.085Z,115
2016-07-03T07:17:34.094Z,110
2016-07-03T07:18:34.141Z,110
2016-07-03T07:19:34.149Z,100
2016-07-03T07:20:34.182Z,95
2016-07-03T07:21:34.195Z,95
2016-07-03T07:22:34.215Z,105
2016-07-03T07:23:34.226Z,110
2016-07-03T07:24:34.241Z,120
2016-07-03T07:25:34.264Z,120
2016-07-03T07:26:34.280Z,115
2016-07-03T07:27:34.307Z,120
2016-07-03T07:28:34.312Z,130
2016-07-03T07:29:34.349Z,135
2016-07-03T07:30:34.352Z,140
2016-07-03T07:31:34.378Z,140
2016-07-03T07:32:34.383Z,135
2016-07-03T07:33:34.401Z,140
2016-07-03T07:34:34.443Z,135
2016-07-03T07:35:34.464Z,130
2016-07-03T07:36:34.487Z,125
2016-07-03T07:37:34.501Z,130
2016-07-03T07:38:34.520Z,135
2016-07-03T07:39:34.527Z,140
2016-07-03T07:40:34.561Z,150
2016-07-03T07:41:34.565Z,155
2016-07-03T07:42:34.603Z,165
2016-07-03T07:43:34.614Z,165
2016-07-03T07:44:34.641Z,170
2016-07-03T07:45:34.666Z,170
2016-07-03T07:46:34.660Z,165
2016-07-03T07:47:34.690Z,155
2016-07-03T07:48:34.707Z,145
2016-07-03T07:49:34.730Z,140
2016-07-03T07:50:34.747Z,150
2016-07-03T07:51:34.783Z,165
2016-07-03T07:52:34.793Z,175
2016-07-03T07:53:34.816Z,180
2016-07-03T07:54:34.822Z,180
2016-07-03T07:55:34.834Z,185
2016-07-03T07:56:34.860Z,190
2016-07-03T07:57:34.876Z,190
2016-07-03T07:58:34.894Z,190
2016-07-03T07:59:34.912Z,190
2016-07-03T08:00:34.935Z,180
2016-07-03T08:01:34.964Z,200
2016-07-03T08:02:34.984Z,215
2016-07-03T08:03:34.998Z,200
2016-07-03T08:04:35.015Z,245
2016-07-03T08:05:35.028Z,205
2016-07-03T08:06:35.061Z,235
2016-07-03T08:07:35.066Z,255
2016-07-03T08:08:35.101Z,255
2016-07-03T08:09:35.101Z,260
2016-07-03T08:10:35.139Z,230
2016-07-03T08:11:35.150Z,275
2016-07-03T08:12:35.167Z,285
2016-07-03T08:13:35.187Z,240
2016-07-03T08:14:35.209Z,280
2016-07-03T08:15:35.233Z,285
2016-07-03T08:16:35.253Z,210
2016-07-03T08:17:35.271Z,270
2016-07-03T08:18:35.289Z,255
2016-07-03T08:19:35.306Z,265
2016-07-03T08:20:35.333Z,270
2016-07-03T08:21:35.364Z,220
2016-07-03T08:22:35.364Z,265
2016-07-03T08:23:35.393Z,265
2016-07-03T08:24:35.416Z,270
2016-07-03T08:25:35.425Z,275
2016-07-03T08:26:35.456Z,280
2016-07-03T08:27:35.460Z,240
2016-07-03T08:28:35.491Z,300
2016-07-03T08:29:35.508Z,305
2016-07-03T08:30:35.536Z,305
2016-07-03T08:31:35.564Z,310
2016-07-03T08:32:35.575Z,310
2016-07-03T08:33:35.606Z,305
2016-07-03T08:34:35.619Z,300
2016-07-03T08:35:35.650Z,295
2016-07-03T08:36:35.658Z,220
2016-07-03T08:37:35.687Z,280
2016-07-03T08:38:35.712Z,280
2016-07-03T08:39:35.736Z,285
2016-07-03T08:40:35.744Z,260
2016-07-03T08:41:35.788Z,215
2016-07-03T08:42:35.779Z,210
2016-07-03T08:43:35.811Z,215
2016-07-03T08:44:35.832Z,205
2016-07-03T08:45:35.854Z,210
2016-07-03T08:46:35.869Z,185
2016-07-03T08:47:35.878Z,195
2016-07-03T08:48:35.888Z,275
2016-07-03T08:49:35.921Z,270
2016-07-03T08:50:35.955Z,220
2016-07-03T08:51:35.971Z,270
2016-07-03T08:52:35.982Z,225
2016-07-03T08:53:36.019Z,210
2016-07-03T08:54:36.035Z,225
2016-07-03T08:55:36.054Z,205
2016-07-03T08:56:36.078Z,275
2016-07-03T08:57:36.088Z,280
2016-07-03T08:58:36.090Z,275
2016-07-03T08:59:36.117Z,270
2016-07-03T09:00:36.156Z,210
2016-07-03T09:01:36.186Z,265
2016-07-03T09:02:36.183Z,275
2016-07-03T09:03:36.283Z,260
2016-07-03T09:04:36.214Z,245
2016-07-03T09:05:36.307Z,235
2016-07-03T09:06:36.276Z,240
2016-07-03T09:07:36.317Z,265
2016-07-03T09:08:36.327Z,270
2016-07-03T09:09:36.398Z,230
2016-07-03T09:10:36.351Z,260
2016-07-03T09:11:36.408Z,255
2016-07-03T09:12:36.400Z,250
2016-07-03T09:13:36.439Z,250
2016-07-03T09:14:36.445Z,250
2016-07-03T09:15:36.468Z,245
2016-07-03T09:16:36.474Z,250
2016-07-03T09:17:36.502Z,245
2016-07-03T09:18:36.528Z,250
2016-07-03T09:19:36.547Z,255
2016-07-03T09:20:36.565Z,210
2016-07-03T09:21:36.594Z,205
2016-07-03T09:22:36.596Z,205
2016-07-03T09:23:36.628Z,200
2016-07-03T09:24:36.638Z,260
2016-07-03T09:25:36.663Z,250
2016-07-03T09:26:36.692Z,250
2016-07-03T09:27:36.699Z,250
2016-07-03T09:28:36.718Z,250
2016-07-03T09:29:37.375Z,230
2016-07-03T09:30:36.767Z,255
2016-07-03T09:31:36.794Z,255
2016-07-03T09:32:36.816Z,225
2016-07-03T09:33:36.837Z,240
2016-07-03T09:34:36.847Z,230
2016-07-03T09:35:36.872Z,270
2016-07-03T09:36:36.879Z,245
2016-07-03T09:37:36.924Z,265
2016-07-03T09:38:36.931Z,240
2016-07-03T09:39:36.961Z,220
2016-07-03T09:40:36.986Z,200
2016-07-03T09:41:37.007Z,250
2016-07-03T09:42:37.017Z,245
2016-07-03T09:43:37.043Z,235
2016-07-03T09:44:37.070Z,250
2016-07-03T09:45:37.082Z,250
2016-07-03T09:46:37.108Z,250
2016-07-03T09:47:37.129Z,250
2016-07-03T09:48:37.151Z,245
2016-07-03T09:49:37.160Z,250
2016-07-03T09:50:37.177Z,255
2016-07-03T09:51:37.221Z,185
2016-07-03T09:52:37.221Z,265
2016-07-03T09:53:37.235Z,185
2016-07-03T09:54:37.257Z,190
2016-07-03T09:55:37.300Z,260
2016-07-03T09:56:37.309Z,265
2016-07-03T09:57:37.334Z,265
2016-07-03T09:58:37.344Z,260
2016-07-03T09:59:37.359Z,265
2016-07-03T10:00:37.397Z,270
2016-07-03T10:01:37.399Z,200
2016-07-03T10:02:37.447Z,205
2016-07-03T10:03:37.459Z,200
2016-07-03T10:04:37.487Z,185
2016-07-03T10:05:37.486Z,260
2016-07-03T10:06:37.521Z,255
2016-07-03T10:07:37.560Z,250
2016-07-03T10:08:37.559Z,250
2016-07-03T10:09:37.621Z,250
2016-07-03T10:10:37.613Z,250
2016-07-03T10:11:37.643Z,250
2016-07-03T10:12:37.647Z,250
2016-07-03T10:13:37.687Z,250
2016-07-03T10:14:37.695Z,250
2016-07-03T10:15:37.726Z,250
2016-07-03T10:16:37.731Z,235
2016-07-03T10:17:37.773Z,245
2016-07-03T10:18:37.783Z,250
2016-07-03T10:19:37.802Z,255
2016-07-03T10:20:37.832Z,250
2016-07-03T10:21:37.849Z,250
2016-07-03T10:22:37.856Z,250
2016-07-03T10:23:37.903Z,250
2016-07-03T10:24:37.913Z,250
2016-07-03T10:25:37.944Z,210
2016-07-03T10:26:37.953Z,245
2016-07-03T10:27:38.000Z,250
2016-07-03T10:28:38.003Z,255
2016-07-03T10:29:38.015Z,255
2016-07-03T10:30:38.045Z,255
2016-07-03T10:31:38.308Z,255
2016-07-03T10:32:38.779Z,255
2016-07-03T10:33:38.776Z,255
2016-07-03T10:34:38.137Z,250
2016-07-03T10:35:38.166Z,245
2016-07-03T10:36:38.176Z,245
2016-07-03T10:37:38.177Z,245
2016-07-03T10:38:38.211Z,245
2016-07-03T10:39:38.239Z,250
2016-07-03T10:40:38.258Z,240
2016-07-03T10:41:38.285Z,240
2016-07-03T10:42:38.298Z,240
2016-07-03T10:43:38.328Z,240
2016-07-03T10:44:38.347Z,170
2016-07-03T10:45:38.382Z,240
2016-07-03T10:46:38.400Z,240
2016-07-03T10:47:38.428Z,240
2016-07-03T10:48:38.432Z,245
2016-07-03T10:49:38.480Z,250
2016-07-03T10:50:38.478Z,255
2016-07-03T10:51:38.537Z,255
2016-07-03T10:52:38.519Z,255
2016-07-03T10:53:38.574Z,255
2016-07-03T10:54:40.973Z,255
2016-07-03T10:55:38.640Z,255
2016-07-03T10:56:38.596Z,255
2016-07-03T10:57:38.642Z,255
2016-07-03T10:58:38.686Z,255
2016-07-03T10:59:38.701Z,260
2016-07-03T11:00:38.690Z,260
2016-07-03T11:01:38.709Z,255
2016-07-03T11:02:38.715Z,260
2016-07-03T11:03:39.213Z,265
2016-07-03T11:04:38.789Z,240
2016-07-03T11:06:15.163Z,215
2016-07-03T11:06:38.809Z,185
2016-07-03T11:07:52.135Z,255
2016-07-03T11:08:38.872Z,260
2016-07-03T11:09:59.482Z,185
2016-07-03T11:10:38.910Z,185
2016-07-03T11:11:38.932Z,180
2016-07-03T11:12:38.954Z,190
2016-07-03T11:13:49.229Z,265
2016-07-03T11:14:38.988Z,265
2016-07-03T11:15:42.913Z,270
2016-07-03T11:16:39.079Z,275
2016-07-03T11:17:39.083Z,275
2016-07-03T11:18:59.288Z,270
2016-07-03T11:19:41.918Z,265
2016-07-03T11:21:16.856Z,265
2016-07-03T11:21:39.177Z,265
2016-07-03T11:22:39.185Z,265
2016-07-03T11:23:39.201Z,265
2016-07-03T11:24:39.216Z,265
2016-07-03T11:25:55.681Z,270
2016-07-03T11:26:39.252Z,265
2016-07-03T11:28:02.881Z,270
2016-07-03T11:28:39.333Z,270
2016-07-03T11:29:39.343Z,275
2016-07-03T11:30:39.360Z,280
2016-07-03T11:31:39.360Z,285
2016-07-03T11:32:39.452Z,280
2016-07-03T11:33:39.425Z,280
2016-07-03T11:34:39.468Z,265
2016-07-03T11:35:39.458Z,200
2016-07-03T11:36:39.483Z,195
2016-07-03T11:37:39.517Z,275
2016-07-03T11:38:39.529Z,275
2016-07-03T11:39:42.964Z,270
2016-07-03T11:40:59.094Z,270
2016-07-03T11:41:39.607Z,270
2016-07-03T11:42:39.613Z,275
2016-07-03T11:43:39.651Z,270
2016-07-03T11:44:39.666Z,270
2016-07-03T11:45:39.692Z,270
2016-07-03T11:46:40.905Z,275
2016-07-03T11:47:39.741Z,280
2016-07-03T11:48:39.747Z,290
2016-07-03T11:49:39.766Z,295
2016-07-03T11:50:39.989Z,295
2016-07-03T11:51:39.823Z,275
2016-07-03T11:52:39.856Z,280
2016-07-03T11:53:39.858Z,275
2016-07-03T11:54:39.891Z,285
2016-07-03T11:55:39.927Z,285
2016-07-03T11:56:39.935Z,195
2016-07-03T11:57:40.161Z,285
2016-07-03T11:58:54.371Z,290
2016-07-03T11:59:49.089Z,290
2016-07-03T12:00:40.028Z,295
2016-07-03T12:01:40.394Z,300
2016-07-03T12:02:40.073Z,305
2016-07-03T12:03:46.668Z,295
2016-07-03T12:04:40.119Z,320
2016-07-03T12:05:40.132Z,320
2016-07-03T12:06:40.165Z,330
2016-07-03T12:07:40.162Z,315
2016-07-03T12:08:40.214Z,235
2016-07-03T12:09:40.250Z,220
2016-07-03T12:10:40.251Z,225
2016-07-03T12:11:40.264Z,225
2016-07-03T12:12:42.983Z,225
2016-07-03T12:13:58.891Z,220
2016-07-03T12:14:54.684Z,220
2016-07-03T12:15:49.195Z,225
2016-07-03T12:16:49.467Z,225
2016-07-03T12:17:48.752Z,220
2016-07-03T12:18:49.865Z,220
2016-07-03T12:19:49.456Z,225
2016-07-03T12:20:48.313Z,230
2016-07-03T12:21:49.080Z,230
2016-07-03T12:22:45.156Z,240
2016-07-03T12:24:00.561Z,250
2016-07-03T12:25:09.997Z,255
2016-07-03T12:26:06.737Z,255
2016-07-03T12:27:06.862Z,285
2016-07-03T12:28:11.999Z,260
2016-07-03T12:29:05.540Z,305
2016-07-03T12:30:01.819Z,270
2016-07-03T12:30:49.725Z,375
2016-07-03T12:31:51.326Z,265
2016-07-03T12:32:56.366Z,375
2016-07-03T12:33:48.033Z,365
2016-07-03T12:34:51.993Z,375
2016-07-03T12:35:49.971Z,380
2016-07-03T12:37:11.674Z,315
2016-07-03T12:38:04.944Z,265
2016-07-03T12:39:05.594Z,265
2016-07-03T12:39:50.986Z,255
2016-07-03T12:43:40.978Z,220
2016-07-03T12:44:15.510Z,215
2016-07-03T12:46:49.598Z,175
2016-07-03T12:47:49.981Z,155
2016-07-03T12:48:37.862Z,140
2016-07-03T12:49:47.973Z,130
2016-07-03T12:50:45.785Z,125
2016-07-03T12:51:36.159Z,115
2016-07-03T12:52:14.443Z,110
2016-07-03T12:54:11.287Z,100
2016-07-03T12:55:55.527Z,110
2016-07-03T12:57:16.690Z,115
2016-07-03T12:57:47.532Z,120
2016-07-03T13:01:09.516Z,160
2016-07-03T13:02:16.567Z,190
2016-07-03T13:03:36.978Z,215
2016-07-03T13:05:24.502Z,200
2016-07-03T13:06:05.121Z,215
2016-07-03T13:06:59.951Z,280
2016-07-03T13:07:50.519Z,230
2016-07-03T13:08:52.400Z,220
2016-07-03T13:10:42.171Z,220
2016-07-03T13:11:01.851Z,225
2016-07-03T13:12:16.437Z,230
2016-07-03T13:13:10.751Z,235
2016-07-03T13:14:14.990Z,240
2016-07-03T13:15:20.810Z,245
2016-07-03T13:16:17.850Z,250
2016-07-03T13:17:25.662Z,255
2016-07-03T13:18:24.358Z,255
2016-07-03T13:19:25.969Z,255
2016-07-03T13:20:21.961Z,260
2016-07-03T13:21:10.253Z,265
2016-07-03T13:22:21.448Z,270
2016-07-03T13:23:13.728Z,280
2016-07-03T13:25:02.274Z,280
2016-07-03T13:26:34.335Z,270
2016-07-03T13:27:58.785Z,260
2016-07-03T13:28:23.996Z,265
2016-07-03T13:29:26.018Z,265
2016-07-03T13:30:23.889Z,265
2016-07-03T13:31:14.411Z,265
2016-07-03T13:32:29.544Z,270
2016-07-03T13:33:25.452Z,270
2016-07-03T13:34:19.230Z,310
2016-07-03T13:35:13.355Z,375
2016-07-03T13:36:18.278Z,305
2016-07-03T13:37:17.800Z,275
2016-07-03T13:38:14.467Z,275
2016-07-03T13:39:17.904Z,285
2016-07-03T13:40:14.972Z,265
2016-07-03T13:41:14.258Z,260
2016-07-03T13:42:14.106Z,270
2016-07-03T13:43:22.283Z,315
2016-07-03T13:44:16.848Z,300
2016-07-03T13:45:20.962Z,270
2016-07-03T13:46:16.500Z,265
2016-07-03T13:47:18.701Z,275
2016-07-03T13:48:16.517Z,290
2016-07-03T13:49:24.678Z,355
2016-07-03T13:50:18.227Z,365
2016-07-03T13:51:25.319Z,370
2016-07-03T13:52:17.649Z,370
2016-07-03T13:53:18.647Z,345
2016-07-03T13:54:22.608Z,320
2016-07-03T13:55:19.289Z,305
2016-07-03T13:56:23.613Z,330
2016-07-03T13:57:19.149Z,315
2016-07-03T13:58:24.621Z,300
2016-07-03T13:59:31.395Z,290
2016-07-03T14:01:21.904Z,350
2016-07-03T14:02:47.904Z,310
2016-07-03T14:04:09.613Z,320
2016-07-03T14:05:02.244Z,305
2016-07-03T14:05:23.906Z,315
2016-07-03T14:06:30.739Z,325
2016-07-03T14:07:26.740Z,280
2016-07-03T14:08:29.112Z,270
2016-07-03T14:09:35.858Z,325
2016-07-03T14:10:29.227Z,325
2016-07-03T14:11:27.540Z,285
2016-07-03T14:12:36.635Z,290
2016-07-03T14:13:25.415Z,315
2016-07-03T14:14:48.243Z,325